Sitka, AK

10:19 PM AKDT on March 28, 2015 (GMT -0800)
Sitka Rocky Gutierrez | | Change Station
CLOSE
Current Station
Airport
Location: Sitka,
Elevation: 20 ft
Nearby Weather Stations

Elev 20 ft 57.05 °N, 135.36 °W | Updated 26 minutes ago

Light Rain
Light Rain
46 °F
Feels Like 41 °F
N
10
Wind Variable Wind from SE

Today
High -- | Low -- °F
--% Chance of Precip.
Yesterday
High -- | Low -- °F
Precip. -- in
6:41 AM 7:32 PM
Waxing Gibbous, 69% visible
Pressure 29.57 in
Visibility 9.0 miles
Clouds Mostly Cloudy 2600 ft
Mostly Cloudy 3000 ft
Overcast 3600 ft
Windchill 41 °F
Dew Point 40 °F
Humidity 79%
Rainfall 0.03 in
Snow Depth Not available.
UV 0 out of 12
Pollen Not available.
Air Quality Not available.
Flu Activity Not available.
METAR PASI 290553Z 13009KT 9SM -RA BKN026 BKN030 OVC036 08/04 A2957 RMK AO2 RAB0456E24B53 SLP013 P0001 60003 T00780044 10094 20072 51023

More Conditions Fewer Conditions

Pressure 29.57 in
Visibility 9.0 miles
Clouds Mostly Cloudy 2600 ft
Mostly Cloudy 3000 ft
Overcast 3600 ft
Windchill 41 °F
Dew Point 40 °F
Humidity 79%
Rainfall 0.03 in
Snow Depth Not available.
UV 0 out of 12
Pollen Not available.
Air Quality Not available.
Flu Activity Not available.
METAR PASI 290553Z 13009KT 9SM -RA BKN026 BKN030 OVC036 08/04 A2957 RMK AO2 RAB0456E24B53 SLP013 P0001 60003 T00780044 10094 20072 51023

More Conditions Fewer Conditions

10-Day Weather Forecast

Almanac

Astronomy

Mar. 28, 2015 Rise Set
Actual Time
Civil Twilight
Nautical Twilight
Astronomical Twilight
Moon
Length of Visible Light
Length of Day
Tomorrow will be .
, % of the Moon is Illuminated

Today's Extremes

State Highs State Lows

Community

WunderPhotos

Upload Photos

1,809,186 photos uploaded!

WunderBlogs® & News

Nearby

Air Quality

  Air Quality AQ Index Pollutant
Not available.

Snow Depth

Station Depth Elevation

Earthquake Activity

City Distance Mag. Time & Date
Minimum magnitude displayed is 2.5.

Coastal Water Temperatures

Place Temperature

Stations

Nearby Weather Stations

Station Location Temp. Windchill Dew Point Humidity Wind Precip. Elev Updated Type